• Join FlightAware (Why Join?)
  • Login
  • US Flag 
01:11PM EDT


 

Airport Tracker/Info


-or-


 

Live Flight TrackerFlight Track Log ✈ N1926A ✈ 02-Nov-2013 ✈ KHSV - 41A

Flight Track Log - Related Links

Times and Time Zones

All times are in EDT time to prevent confusion due to time zone crossing. See the N1926A flight status page for this flight to view local times or setup timezone preferences in your user account.

Time Position Orientation Groundspeed Altitude Reporting Facility
EDT Latitude Longitude Course Direction KTS MPH feet Rate Location/Type
02:56PM 34.7261 -86.7058 97° East 163 188 6,800  Level Memphis Center
02:57PM 34.7203 -86.6456 97° East 180 207 9,300 2,340 Climbing Memphis Center
02:58PM 34.6775 -86.6169 151° Southeast 149 171 11,500 1,800 Climbing Memphis Center
02:59PM 34.6267 -86.5889 156° South 163 188 13,000 660 Climbing Memphis Center
03:00PM 34.5569 -86.5567 159° South 222 255 12,900 -60 Descending Memphis Center
03:01PM 34.4811 -86.5325 165° South 266 306 12,900  Level Memphis Center
03:02PM 34.4228 -86.5092 162° South 277 319 12,900  Level Atlanta Center
03:03PM 34.3503 -86.4844 164° South 277 319 12,900  Level Atlanta Center
03:04PM 34.2736 -86.4569 163° South 277 319 12,900  Level Atlanta Center
03:05PM 34.2008 -86.4322 164° South 277 319 12,900  Level Atlanta Center
03:06PM 34.1306 -86.4103 166° South 277 319 12,900  Level Atlanta Center
03:07PM 34.0558 -86.3856 165° South 277 319 13,000  Climbing Atlanta Center
03:08PM 33.9811 -86.3636 166° South 277 319 13,000  Level Atlanta Center
03:09PM 33.9064 -86.3389 165° South 277 319 13,000  Level Atlanta Center
03:10PM 33.8381 -86.3147 164° South 272 313 13,100  Climbing Atlanta Center
03:11PM 33.7633 -86.2878 163° South 272 313 13,100 -60 Level Atlanta Center
03:12PM 33.6886 -86.2683 168° South 278 320 13,000 -60 Descending Atlanta Center
03:13PM 33.6161 -86.2389 161° South 278 320 13,000  Level Atlanta Center
03:14PM 33.5494 -86.2172 165° South 278 320 13,000  Level Atlanta Center
03:15PM 33.4769 -86.1981 168° South 278 320 13,100  Climbing Atlanta Center
03:16PM 33.4022 -86.1739 165° South 278 320 13,100  Level Atlanta Center
03:17PM 33.3294 -86.1522 166° South 278 320 13,100  Level Atlanta Center
03:18PM 33.2547 -86.1281 165° South 278 320 13,100 -240 Level Atlanta Center
03:19PM 33.1800 -86.0989 162° South 278 320 12,700 -960 Descending Atlanta Center
03:20PM 33.1014 -86.0697 163° South 283 326 11,200 -1,320 Descending Atlanta Center
03:21PM 33.0203 -86.0406 163° South 294 338 10,100 -1,020 Descending Atlanta Center
03:22PM 32.9436 -86.0067 160° South 300 345 9,200 -900 Descending Atlanta Center
03:31PM 32.8623 -85.9820 166° South  Level FlightAware Approximate
03:38PM 32.5149 -85.8762 North  Level Estimated
03:39PM 32.5149 -85.8762 North  Level Estimated